AirNav   Air Wisconsin pilot careers
 
 1332 users online  

MO32 Table Rock Airport
Golden, Missouri, USA

GOING TO GOLDEN?


FAA INFORMATION EFFECTIVE 06 DECEMBER 2018

Location

FAA Identifier: MO32
Lat/Long: 36-31-43.2450N / 093-40-36.6920W
36-31.720750N / 093-40.611533W
36.5286792 / -93.6768589
(estimated)
Elevation: 1053 ft. / 321.0 m (surveyed)
Variation: 04E (1985)
From city: 1 mile W of GOLDEN, MO
Time zone: UTC -6 (UTC -5 during Daylight Saving Time)
Zip code: 65658

Airport Operations

Airport use: Private use. Permission required prior to landing
Activation date: 07/1962
Control tower: no
ARTCC: MEMPHIS CENTER
FSS: COLUMBIA FLIGHT SERVICE STATION
Attendance: MON-FRI 0800-1700
Wind indicator: yes
Segmented circle: no

Airport Communications

WX AWOS-3 at FWB (17 nm NE): 119.725 (417-272-3922)

Nearby radio navigation aids

VOR radial/distance  VOR name  Freq  Var
HROr295/25.7HARRISON VOR/DME112.5004E
RZCr048/27.3RAZORBACK VORTAC116.4004E

Airport Services

Fuel available: 100LL
Parking: tiedowns
Airframe service: MAJOR
Powerplant service: MAJOR
Bottled oxygen: NONE
Bulk oxygen: NONE

Runway Information

Runway 9/27

Dimensions: 2325 x 100 ft. / 709 x 30 m
Surface: concrete
RUNWAY 9  RUNWAY 27
Traffic pattern: rightright
Runway end identifier lights: nono
Obstructions: 10 ft. road12 ft. road

Airport Ownership and Management from official FAA records

Ownership: Privately-owned
Owner: TABLE ROCK AIRPORT OWNERS ASSN. INC
PO BOX 203
EAGLE ROCK, MO 65641
Phone 816-510-7039
Manager: DAVID WILLIAMS
22252 AIRPARK DR.
GOLDEN, MO 65658
Phone 816-510-7039

Airport Operational Statistics

Aircraft based on the field: 8
Single engine airplanes: 8
    
Aircraft operations: avg 46/week *
50% transient general aviation
50% local general aviation
* for 12-month period ending 05 May 1982

Additional Remarks

GRAVEL ROAD & HGRS LOCATED IN PRIMARY SURFACE AREA.

Instrument Procedures

There are no published instrument procedures at MO32.

Some nearby airports with instrument procedures:

4M1 - Carroll County Airport (9 nm S)
94K - Cassville Municipal Airport (15 nm NW)
KFWB - Branson West Municipal Airport - Emerson Field (17 nm NE)
KPLK - M Graham Clark Downtown Airport (22 nm E)
KROG - Rogers Executive Airport - Carter Field (23 nm SW)
 
Loc | Ops | Rwys | IFR | FBO | Links
Com | Nav | Svcs | Stats | Notes

Branson Jet Center
AirBoss

 
Area around MO32 (Table Rock Airport)
 
Road maps at: MapQuest Bing Google
 
Aerial photo
WARNING: Photo may not be current or correct
Aerial photo of MO32 (Table Rock Airport)
Do you have a better or more recent aerial photo of Table Rock Airport that you would like to share? If so, please send us your photo.

 
Sectional chart

 
Airport distance calculator
Flying to Table Rock Airport? Find the distance to fly.

From to MO32

Sunrise and sunset
Times for 14-Dec-2018
 Local
(UTC-6)
 Zulu
(UTC)
Morning civil twilight06:5112:51
Sunrise07:2013:20
Sunset16:5922:59
Evening civil twilight17:2823:28

Current date and time
Zulu (UTC)  14-Dec-2018 18:01:02
Local (UTC-6)  14-Dec-2018 12:01:02
 
METAR
KFWB 
17nm NE 
141735Z AUTO 02007G14KT 350V050 4SM -RA OVC004 05/05 A3002 RMK AO2
KROG 
22nm SW 
141658Z 01013G19KT 5SM -RA BR OVC005 05/04 A3002 RMK AO2 SLP168 P0000 T00500039
KBBG 
23nm E 
141745Z 35007KT 1SM RA OVC003 05/05 A3001
KHFJ 
28nm NW 
141755Z AUTO 36015G21KT 1/2SM -RA OVC002 03/03 A3003 RMK AO2
KVBT 
28nm W 
141756Z AUTO 01012KT 8SM -RA OVC005 04/04 A3002 RMK AO2 SLP172 P0000 60001 T00440039 10050 20039 58002
KHRO 
30nm SE 
141753Z AUTO 35011KT 6SM RA BR OVC006 07/06 A2998 RMK AO2 CIG 003V010 SLP151 P0011 60016 T00670061 10094 20067 58002
KASG 
30nm SW 
141748Z 02012G17KT 5SM BR OVC006 06/06 A3001
TAF
KROG 
22nm SW 
141731Z 1418/1518 01013G19KT P6SM VCSH OVC005 TEMPO 1418/1422 3SM -SHRA BR FM150600 36010KT P6SM OVC007 FM151400 33007KT P6SM OVC015
KBBG 
23nm E 
141738Z 1418/1518 01009KT 1/2SM -RA FG OVC002 FM150100 36010G18KT 3SM BR OVC003 FM151300 34009KT 4SM BR BKN010 FM151500 33008KT 6SM BR BKN030 FM151600 33008KT P6SM BKN050
NOTAMs
Click for the latest NOTAMs
NOTAMs are issued by the DoD/FAA and will open in a separate window not controlled by AirNav.

 

 
 

Would you like to see your business listed on this page?

 If your business provides an interesting product or service to pilots, flight crews, aircraft, or users of the Table Rock Airport, you should consider listing it here.  To start the listing process, click on the button below
 
Add a business
 

Other Pages about Table Rock Airport

Update a link
 
Copyright © AirNav, LLC. All rights reserved. Privacy Policy  Contact